createdAt,value
2018-12-25T00:00:31.479Z,0.00
2018-12-25T00:01:31.505Z,0.00
2018-12-25T00:02:31.558Z,0.00
2018-12-25T00:03:31.710Z,0.00
2018-12-25T00:04:31.649Z,0.00
2018-12-25T00:05:31.667Z,0.00
2018-12-25T00:06:31.706Z,0.00
2018-12-25T00:07:31.743Z,0.00
2018-12-25T00:08:31.788Z,0.00
2018-12-25T00:09:31.847Z,0.00
2018-12-25T00:10:31.863Z,0.00
2018-12-25T00:11:31.915Z,0.00
2018-12-25T00:12:31.949Z,0.00
2018-12-25T00:13:31.980Z,0.00
2018-12-25T00:14:32.059Z,0.00
2018-12-25T00:15:32.063Z,0.00
2018-12-25T00:16:32.107Z,0.00
2018-12-25T00:17:32.149Z,0.00
2018-12-25T00:18:32.180Z,0.00
2018-12-25T00:19:32.246Z,0.00
2018-12-25T00:20:33.345Z,0.00
2018-12-25T00:21:32.328Z,0.00
2018-12-25T00:22:32.334Z,0.00
2018-12-25T00:23:32.384Z,0.00
2018-12-25T00:24:32.416Z,0.00
2018-12-25T00:25:32.478Z,0.00
2018-12-25T00:26:32.502Z,0.00
2018-12-25T00:27:32.535Z,0.00
2018-12-25T00:28:32.663Z,0.00
2018-12-25T00:29:32.650Z,0.00
2018-12-25T00:30:32.688Z,0.00
2018-12-25T00:31:32.702Z,0.00
2018-12-25T00:32:32.738Z,0.00
2018-12-25T00:33:32.786Z,0.00
2018-12-25T00:34:32.814Z,0.00
2018-12-25T00:35:32.878Z,0.00
2018-12-25T00:36:32.891Z,0.00
2018-12-25T00:37:32.945Z,0.00
2018-12-25T00:38:32.974Z,0.00
2018-12-25T00:39:33.024Z,0.00
2018-12-25T00:40:33.073Z,0.00
2018-12-25T00:41:33.104Z,0.00
2018-12-25T00:42:33.133Z,0.00
2018-12-25T00:43:33.171Z,0.00
2018-12-25T00:44:33.217Z,0.00
2018-12-25T00:45:33.273Z,0.00
2018-12-25T00:46:33.316Z,0.00
2018-12-25T00:47:33.327Z,0.00
2018-12-25T00:48:33.376Z,0.00
2018-12-25T00:49:33.408Z,0.00
2018-12-25T00:50:33.468Z,0.00
2018-12-25T00:51:33.490Z,0.00
2018-12-25T00:52:33.529Z,0.00
2018-12-25T00:53:33.610Z,0.00
2018-12-25T00:54:33.610Z,0.00
2018-12-25T00:55:33.664Z,0.00
2018-12-25T00:56:33.703Z,0.00
2018-12-25T00:57:33.730Z,0.00
2018-12-25T00:58:33.787Z,0.00
2018-12-25T00:59:33.807Z,0.00
2018-12-25T01:00:33.907Z,0.00
2018-12-25T01:01:33.906Z,0.00
2018-12-25T01:02:33.925Z,0.00
2018-12-25T01:03:33.965Z,0.00
2018-12-25T01:04:34.002Z,0.00
2018-12-25T01:05:34.047Z,0.00
2018-12-25T01:06:34.100Z,0.00
2018-12-25T01:07:34.122Z,0.00
2018-12-25T01:08:34.159Z,0.00
2018-12-25T01:09:34.204Z,0.00
2018-12-25T01:10:34.241Z,0.00
2018-12-25T01:11:34.321Z,0.00
2018-12-25T01:12:34.318Z,0.00
2018-12-25T01:13:34.359Z,0.00
2018-12-25T01:14:34.398Z,0.00
2018-12-25T01:15:34.444Z,0.00
2018-12-25T01:16:34.579Z,0.00
2018-12-25T01:17:34.533Z,0.00
2018-12-25T01:18:34.562Z,0.00
2018-12-25T01:19:34.605Z,0.00
2018-12-25T01:20:34.633Z,0.00
2018-12-25T01:21:34.698Z,0.00
2018-12-25T01:22:34.737Z,0.00
2018-12-25T01:23:34.767Z,0.00
2018-12-25T01:24:34.791Z,0.00
2018-12-25T01:25:34.864Z,0.00
2018-12-25T01:26:34.870Z,0.00
2018-12-25T01:27:34.933Z,0.00
2018-12-25T01:28:34.955Z,0.00
2018-12-25T01:29:34.993Z,0.00
2018-12-25T01:30:35.035Z,0.00
2018-12-25T01:31:35.078Z,0.00
2018-12-25T01:32:35.133Z,0.00
2018-12-25T01:33:35.158Z,0.00
2018-12-25T01:34:35.186Z,0.00
2018-12-25T01:35:35.229Z,0.00
2018-12-25T01:36:35.267Z,0.00
2018-12-25T01:37:35.336Z,0.00
2018-12-25T01:38:35.397Z,0.00
2018-12-25T01:39:35.386Z,0.00
2018-12-25T01:40:35.432Z,0.00
2018-12-25T01:41:35.464Z,0.00
2018-12-25T01:42:35.549Z,0.00
2018-12-25T01:43:35.557Z,0.00
2018-12-25T01:44:35.583Z,0.00
2018-12-25T01:45:35.631Z,0.00
2018-12-25T01:46:35.665Z,0.00
2018-12-25T01:47:35.721Z,0.00
2018-12-25T01:48:35.762Z,0.00
2018-12-25T01:49:35.780Z,0.00
2018-12-25T01:50:35.826Z,0.00
2018-12-25T01:51:35.857Z,0.00
2018-12-25T01:52:35.896Z,0.00
2018-12-25T01:53:35.964Z,0.00
2018-12-25T01:54:35.975Z,0.00
2018-12-25T01:55:36.027Z,0.00
2018-12-25T01:56:36.064Z,0.00
2018-12-25T01:57:36.152Z,0.00
2018-12-25T01:58:36.157Z,0.00
2018-12-25T01:59:36.194Z,0.00
2018-12-25T02:00:36.212Z,0.00
2018-12-25T02:01:36.251Z,0.00
2018-12-25T02:02:36.292Z,0.00
2018-12-25T02:03:36.330Z,0.00
2018-12-25T02:04:36.389Z,0.00
2018-12-25T02:05:36.416Z,0.00
2018-12-25T02:06:36.547Z,0.00
2018-12-25T02:07:36.486Z,0.00
2018-12-25T02:08:36.526Z,0.00
2018-12-25T02:09:36.603Z,0.00
2018-12-25T02:10:36.604Z,0.00
2018-12-25T02:11:36.647Z,0.00
2018-12-25T02:12:36.691Z,0.00
2018-12-25T02:13:36.723Z,0.00
2018-12-25T02:14:36.795Z,0.00
2018-12-25T02:15:36.803Z,0.00
2018-12-25T02:16:36.843Z,0.00
2018-12-25T02:17:36.880Z,0.00
2018-12-25T02:18:36.920Z,0.00
2018-12-25T02:19:40.329Z,0.00
2018-12-25T02:20:37.002Z,0.00
2018-12-25T02:21:37.045Z,0.00
2018-12-25T02:22:37.075Z,0.00
2018-12-25T02:23:37.113Z,0.00
2018-12-25T02:24:37.222Z,0.00
2018-12-25T02:25:37.193Z,0.00
2018-12-25T02:26:37.234Z,0.00
2018-12-25T02:27:37.274Z,0.00
2018-12-25T02:28:37.312Z,0.00
2018-12-25T02:29:37.370Z,0.00
2018-12-25T02:30:37.398Z,0.00
2018-12-25T02:31:37.450Z,0.00
2018-12-25T02:32:37.475Z,0.00
2018-12-25T02:33:37.506Z,0.00
2018-12-25T02:34:37.564Z,0.00
2018-12-25T02:35:37.610Z,0.00
2018-12-25T02:36:37.622Z,0.00
2018-12-25T02:37:37.667Z,0.00
2018-12-25T02:38:37.704Z,0.00
2018-12-25T02:39:37.791Z,0.00
2018-12-25T02:40:37.791Z,0.00
2018-12-25T02:41:37.822Z,0.00
2018-12-25T02:42:37.862Z,0.00
2018-12-25T02:43:37.905Z,0.00
2018-12-25T02:44:37.973Z,0.00
2018-12-25T02:45:38.005Z,0.00
2018-12-25T02:46:38.033Z,0.00
2018-12-25T02:47:38.056Z,0.00
2018-12-25T02:48:38.103Z,0.00
2018-12-25T02:49:38.140Z,0.00
2018-12-25T02:50:38.197Z,0.00
2018-12-25T02:51:38.215Z,0.00
2018-12-25T02:52:38.252Z,0.00
2018-12-25T02:53:38.301Z,0.00
2018-12-25T02:54:38.334Z,0.00
2018-12-25T02:55:38.410Z,0.00
2018-12-25T02:56:38.497Z,0.00
2018-12-25T02:57:38.449Z,0.00
2018-12-25T02:58:38.489Z,0.00
2018-12-25T02:59:38.526Z,0.00
2018-12-25T03:00:38.590Z,0.00
2018-12-25T03:01:38.609Z,0.00
2018-12-25T03:02:38.652Z,0.00
2018-12-25T03:03:38.690Z,0.00
2018-12-25T03:04:38.723Z,0.00
2018-12-25T03:05:38.854Z,0.00
2018-12-25T03:06:38.830Z,0.00
2018-12-25T03:07:38.843Z,0.00
2018-12-25T03:08:38.884Z,0.00
2018-12-25T03:09:38.927Z,0.00
2018-12-25T03:10:38.959Z,0.00
2018-12-25T03:11:39.017Z,0.00
2018-12-25T03:12:39.038Z,0.00
2018-12-25T03:13:39.076Z,0.00
2018-12-25T03:14:39.127Z,0.00
2018-12-25T03:15:39.171Z,0.00
2018-12-25T03:16:39.219Z,0.00
2018-12-25T03:17:39.251Z,0.00
2018-12-25T03:18:39.280Z,0.00
2018-12-25T03:19:39.312Z,0.00
2018-12-25T03:20:39.400Z,0.00
2018-12-25T03:21:39.501Z,0.00
2018-12-25T03:22:39.445Z,0.00
2018-12-25T03:23:39.468Z,0.00
2018-12-25T03:24:39.517Z,0.00
2018-12-25T03:25:39.549Z,0.00
2018-12-25T03:26:39.584Z,0.00
2018-12-25T03:27:39.649Z,0.00
2018-12-25T03:28:39.669Z,0.00
2018-12-25T03:29:39.698Z,0.00
2018-12-25T03:30:39.741Z,0.00
2018-12-25T03:31:39.784Z,0.00
2018-12-25T03:32:39.838Z,0.00
2018-12-25T03:33:39.858Z,0.00
2018-12-25T03:34:39.899Z,0.00
2018-12-25T03:35:39.939Z,0.00
2018-12-25T03:36:39.984Z,0.00
2018-12-25T03:37:40.047Z,0.00
2018-12-25T03:38:40.054Z,0.00
2018-12-25T03:39:40.141Z,0.00
2018-12-25T03:40:40.141Z,0.00
2018-12-25T03:41:40.180Z,0.00
2018-12-25T03:42:40.237Z,0.00
2018-12-25T03:43:40.266Z,0.00
2018-12-25T03:44:40.288Z,0.00
2018-12-25T03:45:40.332Z,0.00
2018-12-25T03:46:40.420Z,0.00
2018-12-25T03:47:40.424Z,0.00
2018-12-25T03:48:40.467Z,0.00
2018-12-25T03:49:40.485Z,0.00
2018-12-25T03:50:40.528Z,0.00
2018-12-25T03:51:40.582Z,0.00
2018-12-25T03:52:40.605Z,0.00
2018-12-25T03:53:40.731Z,0.00
2018-12-25T03:54:40.695Z,0.00
2018-12-25T03:55:40.722Z,0.00
2018-12-25T03:56:40.767Z,0.00
2018-12-25T03:57:40.802Z,0.00
2018-12-25T03:58:41.200Z,0.00
2018-12-25T03:59:40.895Z,0.00
2018-12-25T04:00:40.919Z,0.00
2018-12-25T04:01:40.960Z,0.00
2018-12-25T04:02:41.000Z,0.00
2018-12-25T04:03:41.061Z,0.00
2018-12-25T04:04:41.078Z,0.00
2018-12-25T04:05:41.137Z,0.00
2018-12-25T04:06:41.155Z,0.00
2018-12-25T04:07:41.219Z,0.00
2018-12-25T04:08:41.253Z,0.00
2018-12-25T04:09:41.273Z,0.00
2018-12-25T04:10:41.330Z,0.00
2018-12-25T04:11:41.415Z,0.00
2018-12-25T04:12:41.389Z,0.00
2018-12-25T04:13:41.456Z,0.00
2018-12-25T04:14:41.496Z,0.00
2018-12-25T04:15:41.630Z,0.00
2018-12-25T04:16:41.550Z,0.00
2018-12-25T04:17:41.593Z,0.00
2018-12-25T04:18:41.647Z,0.00
2018-12-25T04:19:41.697Z,0.00
2018-12-25T04:20:41.709Z,0.00
2018-12-25T04:21:41.745Z,0.00
2018-12-25T04:22:41.782Z,0.00
2018-12-25T04:23:41.824Z,0.00
2018-12-25T04:24:41.894Z,0.00
2018-12-25T04:25:41.922Z,0.00
2018-12-25T04:26:41.941Z,0.00
2018-12-25T04:27:41.980Z,0.00
2018-12-25T04:28:42.025Z,0.00
2018-12-25T04:29:42.068Z,0.00
2018-12-25T04:30:42.120Z,0.00
2018-12-25T04:31:42.139Z,0.00
2018-12-25T04:32:42.182Z,0.00
2018-12-25T04:33:42.218Z,0.00
2018-12-25T04:34:42.410Z,0.00
2018-12-25T04:35:42.325Z,0.00
2018-12-25T04:36:42.398Z,0.00
2018-12-25T04:37:42.385Z,0.00
2018-12-25T04:38:42.416Z,0.00
2018-12-25T04:39:42.459Z,0.00
2018-12-25T04:40:42.519Z,0.00
2018-12-25T04:41:42.541Z,0.00
2018-12-25T04:42:42.576Z,0.00
2018-12-25T04:43:42.614Z,0.00
2018-12-25T04:44:42.657Z,0.00
2018-12-25T04:45:42.721Z,0.00
2018-12-25T04:46:42.732Z,0.00
2018-12-25T04:47:42.774Z,0.00
2018-12-25T04:48:42.810Z,0.00
2018-12-25T04:49:42.855Z,0.00
2018-12-25T04:50:42.919Z,0.00
2018-12-25T04:51:42.970Z,0.00
2018-12-25T04:52:42.979Z,0.00
2018-12-25T04:53:43.084Z,0.00
2018-12-25T04:54:43.051Z,0.00
2018-12-25T04:55:43.092Z,0.00
2018-12-25T04:56:43.151Z,0.00
2018-12-25T04:57:43.169Z,0.00
2018-12-25T04:58:43.209Z,0.00
2018-12-25T04:59:43.289Z,0.00
2018-12-25T05:00:43.845Z,0.00
2018-12-25T05:01:43.351Z,0.00
2018-12-25T05:02:43.393Z,0.00
2018-12-25T05:03:43.416Z,0.00
2018-12-25T05:04:43.449Z,0.00
2018-12-25T05:05:44.143Z,0.00
2018-12-25T05:06:43.546Z,0.00
2018-12-25T05:07:43.568Z,0.00
2018-12-25T05:08:43.607Z,0.00
2018-12-25T05:09:43.650Z,0.00
2018-12-25T05:10:43.693Z,0.00
2018-12-25T05:11:43.763Z,0.00
2018-12-25T05:12:43.770Z,0.00
2018-12-25T05:13:43.810Z,0.00
2018-12-25T05:14:43.847Z,0.00
2018-12-25T05:15:43.893Z,0.00
2018-12-25T05:16:43.948Z,0.00
2018-12-25T05:17:43.991Z,0.00
2018-12-25T05:18:44.032Z,0.00
2018-12-25T05:19:44.046Z,0.00
2018-12-25T05:20:44.086Z,0.00
2018-12-25T05:21:44.147Z,0.00
2018-12-25T05:22:44.167Z,0.00
2018-12-25T05:23:44.225Z,0.00
2018-12-25T05:24:44.302Z,0.00
2018-12-25T05:25:44.285Z,0.00
2018-12-25T05:26:44.320Z,0.00
2018-12-25T05:27:44.397Z,0.00
2018-12-25T05:28:44.424Z,0.00
2018-12-25T05:29:44.440Z,0.00
2018-12-25T05:30:44.481Z,0.00
2018-12-25T05:31:44.522Z,0.00
2018-12-25T05:32:44.580Z,0.00
2018-12-25T05:33:44.609Z,0.00
2018-12-25T05:34:44.638Z,0.00
2018-12-25T05:35:44.680Z,0.00
2018-12-25T05:36:44.750Z,0.00
2018-12-25T05:37:44.758Z,0.00
2018-12-25T05:38:44.815Z,0.00
2018-12-25T05:39:44.842Z,0.00
2018-12-25T05:40:44.883Z,0.00
2018-12-25T05:41:44.913Z,0.00
2018-12-25T05:42:44.958Z,0.00
2018-12-25T05:43:45.021Z,0.00
2018-12-25T05:44:45.041Z,0.00
2018-12-25T05:45:45.083Z,0.00
2018-12-25T05:46:45.118Z,0.00
2018-12-25T05:47:45.152Z,0.00
2018-12-25T05:48:45.214Z,0.00
2018-12-25T05:49:45.304Z,0.00
2018-12-25T05:50:46.762Z,0.00
2018-12-25T05:51:45.312Z,0.00
2018-12-25T05:52:45.353Z,0.00
2018-12-25T05:53:45.420Z,0.00
2018-12-25T05:54:45.428Z,0.00
2018-12-25T05:55:45.467Z,0.00
2018-12-25T05:56:45.507Z,0.00
2018-12-25T05:57:45.550Z,0.00
2018-12-25T05:58:45.616Z,0.00
2018-12-25T05:59:45.635Z,0.00
2018-12-25T06:00:45.665Z,0.00
2018-12-25T06:01:45.815Z,0.00
2018-12-25T06:02:45.751Z,0.00
2018-12-25T06:03:45.802Z,0.00
2018-12-25T06:04:45.847Z,0.00
2018-12-25T06:05:45.881Z,0.00
2018-12-25T06:06:45.902Z,0.00
2018-12-25T06:07:45.944Z,0.00
2018-12-25T06:08:45.988Z,0.00
2018-12-25T06:09:46.047Z,0.00
2018-12-25T06:10:46.061Z,0.00
2018-12-25T06:11:46.096Z,0.00
2018-12-25T06:12:46.134Z,0.00
2018-12-25T06:13:46.177Z,0.00
2018-12-25T06:14:46.249Z,0.00
2018-12-25T06:15:46.258Z,0.00
2018-12-25T06:16:46.300Z,0.00
2018-12-25T06:17:46.334Z,0.00
2018-12-25T06:18:46.389Z,0.00
2018-12-25T06:19:46.432Z,0.00
2018-12-25T06:20:54.817Z,0.00
2018-12-25T06:21:46.529Z,0.00
2018-12-25T06:22:46.526Z,0.00
2018-12-25T06:23:46.566Z,0.00
2018-12-25T06:24:46.605Z,0.00
2018-12-25T06:25:46.678Z,0.00
2018-12-25T06:26:46.683Z,0.00
2018-12-25T06:27:46.720Z,0.00
2018-12-25T06:28:46.765Z,0.00
2018-12-25T06:29:46.801Z,0.00
2018-12-25T06:30:46.875Z,0.00
2018-12-25T06:31:46.882Z,0.00
2018-12-25T06:32:46.917Z,4.00
2018-12-25T06:33:46.964Z,4.00
2018-12-25T06:34:46.998Z,0.00
2018-12-25T06:35:47.077Z,4.00
2018-12-25T06:36:47.081Z,4.00
2018-12-25T06:37:47.113Z,4.00
2018-12-25T06:38:47.149Z,4.00
2018-12-25T06:39:47.252Z,8.00
2018-12-25T06:40:47.270Z,8.00
2018-12-25T06:41:47.267Z,8.00
2018-12-25T06:42:47.313Z,12.00
2018-12-25T06:43:47.361Z,12.00
2018-12-25T06:44:47.382Z,16.00
2018-12-25T06:45:47.496Z,20.00
2018-12-25T06:46:47.554Z,24.00
2018-12-25T06:47:47.501Z,28.00
2018-12-25T06:48:47.541Z,32.00
2018-12-25T06:49:47.583Z,36.00
2018-12-25T06:50:47.640Z,36.00
2018-12-25T06:51:47.678Z,40.00
2018-12-25T06:52:47.694Z,48.00
2018-12-25T06:53:47.739Z,60.00
2018-12-25T06:54:47.774Z,68.00
2018-12-25T06:55:47.834Z,76.00
2018-12-25T06:56:48.180Z,84.00
2018-12-25T06:57:47.889Z,92.00
2018-12-25T06:58:47.929Z,112.00
2018-12-25T06:59:47.968Z,128.00
2018-12-25T07:00:48.006Z,148.00
2018-12-25T07:01:48.044Z,152.00
2018-12-25T07:02:48.113Z,160.00
2018-12-25T07:03:48.124Z,168.00
2018-12-25T07:04:48.189Z,180.00
2018-12-25T07:05:48.200Z,200.00
2018-12-25T07:06:48.238Z,204.00
2018-12-25T07:07:48.297Z,228.00
2018-12-25T07:08:48.331Z,280.00
2018-12-25T07:09:48.357Z,312.00
2018-12-25T07:10:48.408Z,356.00
2018-12-25T07:11:48.460Z,372.00
2018-12-25T07:12:48.495Z,388.00
2018-12-25T07:13:48.512Z,416.00
2018-12-25T07:14:48.551Z,456.00
2018-12-25T07:15:48.590Z,480.00
2018-12-25T07:16:48.629Z,504.00
2018-12-25T07:17:48.700Z,540.00
2018-12-25T07:18:48.736Z,584.00
2018-12-25T07:19:48.752Z,644.00
2018-12-25T07:20:48.787Z,696.00
2018-12-25T07:21:48.825Z,768.00
2018-12-25T07:22:48.889Z,852.00
2018-12-25T07:23:48.934Z,892.00
2018-12-25T07:24:48.943Z,884.00
2018-12-25T07:25:48.984Z,904.00
2018-12-25T07:26:49.022Z,876.00
2018-12-25T07:27:49.130Z,840.00
2018-12-25T07:28:49.115Z,800.00
2018-12-25T07:29:50.311Z,764.00
2018-12-25T07:30:49.182Z,928.00
2018-12-25T07:31:49.216Z,1100.00
2018-12-25T07:32:49.282Z,1096.00
2018-12-25T07:33:49.292Z,964.00
2018-12-25T07:34:49.332Z,848.00
2018-12-25T07:35:49.381Z,792.00
2018-12-25T07:36:49.424Z,696.00
2018-12-25T07:37:49.477Z,668.00
2018-12-25T07:38:49.499Z,652.00
2018-12-25T07:39:49.555Z,688.00
2018-12-25T07:40:49.571Z,756.00
2018-12-25T07:41:49.614Z,764.00
2018-12-25T07:42:49.644Z,740.00
2018-12-25T07:43:49.716Z,740.00
2018-12-25T07:44:49.746Z,668.00
2018-12-25T07:45:49.762Z,604.00
2018-12-25T07:46:49.803Z,652.00
2018-12-25T07:47:49.843Z,780.00
2018-12-25T07:48:49.907Z,820.00
2018-12-25T07:49:49.921Z,804.00
2018-12-25T07:50:49.996Z,824.00
2018-12-25T07:51:50.000Z,932.00
2018-12-25T07:52:50.063Z,1060.00
2018-12-25T07:53:50.075Z,1100.00
2018-12-25T07:54:50.138Z,1032.00
2018-12-25T07:55:50.163Z,948.00
2018-12-25T07:56:50.194Z,944.00
2018-12-25T07:57:50.241Z,984.00
2018-12-25T07:58:50.271Z,1088.00
2018-12-25T07:59:50.335Z,1176.00
2018-12-25T08:00:50.361Z,1204.00
2018-12-25T08:01:50.391Z,1092.00
2018-12-25T08:02:50.432Z,1008.00
2018-12-25T08:03:50.477Z,1132.00
2018-12-25T08:04:50.533Z,1360.00
2018-12-25T08:05:50.570Z,1572.00
2018-12-25T08:06:50.588Z,1724.00
2018-12-25T08:07:50.626Z,1840.00
2018-12-25T08:08:50.670Z,1652.00
2018-12-25T08:09:50.727Z,1372.00
2018-12-25T08:10:50.744Z,1308.00
2018-12-25T08:11:50.788Z,1548.00
2018-12-25T08:12:50.847Z,1708.00
2018-12-25T08:13:50.864Z,1884.00
2018-12-25T08:14:50.925Z,2252.00
2018-12-25T08:15:50.941Z,2404.00
2018-12-25T08:16:51.853Z,2556.00
2018-12-25T08:17:51.025Z,2672.00
2018-12-25T08:18:51.057Z,2796.00
2018-12-25T08:19:51.124Z,2964.00
2018-12-25T08:20:51.160Z,3100.00
2018-12-25T08:21:51.178Z,3136.00
2018-12-25T08:22:51.216Z,2908.00
2018-12-25T08:23:51.262Z,2772.00
2018-12-25T08:24:51.305Z,3124.00
2018-12-25T08:25:51.363Z,3820.00
2018-12-25T08:26:51.387Z,4544.00
2018-12-25T08:27:52.825Z,5308.00
2018-12-25T08:28:51.460Z,5264.00
2018-12-25T08:29:51.508Z,5636.00
2018-12-25T08:30:51.556Z,6692.00
2018-12-25T08:31:51.577Z,7532.00
2018-12-25T08:32:51.640Z,6436.00
2018-12-25T08:33:51.656Z,5676.00
2018-12-25T08:34:51.703Z,5940.00
2018-12-25T08:35:51.757Z,5848.00
2018-12-25T08:36:51.798Z,5512.00
2018-12-25T08:37:52.325Z,5460.00
2018-12-25T08:38:51.865Z,5968.00
2018-12-25T08:39:51.898Z,6432.00
2018-12-25T08:40:52.639Z,6796.00
2018-12-25T08:41:52.826Z,7488.00
2018-12-25T08:42:52.163Z,7320.00
2018-12-25T08:43:52.072Z,7632.00
2018-12-25T08:44:52.098Z,8028.00
2018-12-25T08:45:52.157Z,8680.00
2018-12-25T08:46:52.199Z,8904.00
2018-12-25T08:47:52.229Z,8604.00
2018-12-25T08:48:52.263Z,7748.00
2018-12-25T08:49:52.317Z,7728.00
2018-12-25T08:50:52.340Z,8052.00
2018-12-25T08:51:52.415Z,8104.00
2018-12-25T08:52:52.421Z,7928.00
2018-12-25T08:53:52.463Z,7988.00
2018-12-25T08:54:52.504Z,7688.00
2018-12-25T08:55:52.553Z,7608.00
2018-12-25T08:56:52.614Z,7632.00
2018-12-25T08:57:54.785Z,8208.00
2018-12-25T08:58:52.669Z,9736.00
2018-12-25T08:59:52.727Z,9444.00
2018-12-25T09:00:52.753Z,9508.00
2018-12-25T09:01:53.325Z,9612.00
2018-12-25T09:02:52.830Z,9016.00
2018-12-25T09:03:52.930Z,8864.00
2018-12-25T09:04:52.934Z,9072.00
2018-12-25T09:05:53.327Z,9012.00
2018-12-25T09:06:53.035Z,8820.00
2018-12-25T09:07:53.035Z,8748.00
2018-12-25T09:08:53.076Z,8420.00
2018-12-25T09:09:53.120Z,8552.00
2018-12-25T09:10:53.165Z,8856.00
2018-12-25T09:11:53.222Z,8572.00
2018-12-25T09:12:53.261Z,8772.00
2018-12-25T09:13:53.282Z,8224.00
2018-12-25T09:14:53.410Z,8332.00
2018-12-25T09:15:53.364Z,9060.00
2018-12-25T09:16:54.325Z,8908.00
2018-12-25T09:17:53.482Z,8840.00
2018-12-25T09:18:53.493Z,9520.00
2018-12-25T09:19:53.528Z,9164.00
2018-12-25T09:20:53.580Z,9760.00
2018-12-25T09:21:54.356Z,9804.00
2018-12-25T09:22:53.672Z,10396.00
2018-12-25T09:23:53.699Z,10096.00
2018-12-25T09:24:53.738Z,10376.00
2018-12-25T09:25:53.783Z,10300.00
2018-12-25T09:26:53.820Z,10724.00
2018-12-25T09:27:53.880Z,10540.00
2018-12-25T09:28:53.903Z,10044.00
2018-12-25T09:29:53.948Z,9888.00
2018-12-25T09:30:53.986Z,10424.00
2018-12-25T09:31:54.028Z,10112.00
2018-12-25T09:32:54.106Z,10328.00
2018-12-25T09:33:54.134Z,10840.00
2018-12-25T09:34:54.151Z,10924.00
2018-12-25T09:35:54.205Z,11436.00
2018-12-25T09:36:54.247Z,11072.00
2018-12-25T09:37:54.284Z,9784.00
2018-12-25T09:38:54.337Z,10140.00
2018-12-25T09:39:54.374Z,9736.00
2018-12-25T09:40:56.262Z,9936.00
2018-12-25T09:41:54.442Z,10212.00
2018-12-25T09:42:54.480Z,10364.00
2018-12-25T09:43:54.558Z,10264.00
2018-12-25T09:44:54.722Z,10380.00
2018-12-25T09:45:54.612Z,10092.00
2018-12-25T09:46:54.684Z,9872.00
2018-12-25T09:47:54.701Z,9896.00
2018-12-25T09:48:54.767Z,9808.00
2018-12-25T09:49:54.796Z,9548.00
2018-12-25T09:50:54.815Z,9868.00
2018-12-25T09:51:54.888Z,10700.00
2018-12-25T09:52:54.905Z,11280.00
2018-12-25T09:53:54.969Z,11820.00
2018-12-25T09:54:55.002Z,12420.00
2018-12-25T09:55:55.027Z,12424.00
2018-12-25T09:56:55.082Z,11704.00
2018-12-25T09:57:55.108Z,12004.00
2018-12-25T09:58:55.158Z,12288.00
2018-12-25T09:59:55.229Z,13964.00
2018-12-25T10:00:55.236Z,13836.00
2018-12-25T10:01:55.824Z,13844.00
2018-12-25T10:02:55.326Z,13480.00
2018-12-25T10:03:55.356Z,14236.00
2018-12-25T10:04:56.614Z,13588.00
2018-12-25T10:05:55.462Z,13180.00
2018-12-25T10:06:55.485Z,12356.00
2018-12-25T10:07:55.533Z,11628.00
2018-12-25T10:08:55.574Z,10568.00
2018-12-25T10:09:55.707Z,9848.00
2018-12-25T10:10:55.676Z,9924.00
2018-12-25T10:11:55.688Z,10992.00
2018-12-25T10:12:55.744Z,11696.00
2018-12-25T10:13:55.809Z,12428.00
2018-12-25T10:14:56.332Z,11824.00
2018-12-25T10:15:55.889Z,11584.00
2018-12-25T10:16:57.831Z,12124.00
2018-12-25T10:17:55.948Z,12044.00
2018-12-25T10:18:55.987Z,11780.00
2018-12-25T10:19:56.053Z,11228.00
2018-12-25T10:20:56.106Z,10436.00
2018-12-25T10:22:02.871Z,10076.00
2018-12-25T10:22:57.841Z,9808.00
2018-12-25T10:23:56.825Z,9048.00
2018-12-25T10:24:56.243Z,8648.00
2018-12-25T10:25:57.138Z,7828.00
2018-12-25T10:26:56.823Z,7436.00
2018-12-25T10:27:56.377Z,7440.00
2018-12-25T10:28:56.409Z,7696.00
2018-12-25T10:29:56.456Z,8264.00
2018-12-25T10:30:56.533Z,8680.00
2018-12-25T10:31:56.535Z,8968.00
2018-12-25T10:32:56.579Z,9092.00
2018-12-25T10:33:56.621Z,9480.00
2018-12-25T10:34:56.692Z,9564.00
2018-12-25T10:35:56.726Z,9976.00
2018-12-25T10:36:56.748Z,9864.00
2018-12-25T10:37:56.790Z,9980.00
2018-12-25T10:38:56.831Z,10104.00
2018-12-25T10:39:56.890Z,10244.00
2018-12-25T10:40:57.357Z,10384.00
2018-12-25T10:41:57.000Z,10168.00
2018-12-25T10:42:56.997Z,9612.00
2018-12-25T10:43:57.055Z,8424.00
2018-12-25T10:44:57.087Z,7508.00
2018-12-25T10:45:57.826Z,6716.00
2018-12-25T10:46:57.189Z,6204.00
2018-12-25T10:47:57.218Z,6200.00
2018-12-25T10:48:57.322Z,5988.00
2018-12-25T10:49:57.298Z,5528.00
2018-12-25T10:50:58.831Z,5220.00
2018-12-25T10:51:59.322Z,5192.00
2018-12-25T10:52:58.321Z,5972.00
2018-12-25T10:53:57.468Z,6044.00
2018-12-25T10:54:57.501Z,5476.00
2018-12-25T10:55:57.546Z,6336.00
2018-12-25T10:56:57.625Z,7416.00
2018-12-25T10:57:57.656Z,8508.00
2018-12-25T10:58:57.674Z,8840.00
2018-12-25T10:59:57.717Z,8396.00
2018-12-25T11:00:57.758Z,8240.00
2018-12-25T11:01:57.799Z,9696.00
2018-12-25T11:02:57.881Z,9164.00
2018-12-25T11:03:57.890Z,9560.00
2018-12-25T11:04:58.353Z,10024.00
2018-12-25T11:05:58.825Z,10324.00
2018-12-25T11:06:59.823Z,11208.00
2018-12-25T11:07:58.160Z,11008.00
2018-12-25T11:08:58.104Z,10624.00
2018-12-25T11:10:00.822Z,9152.00
2018-12-25T11:10:59.835Z,8928.00
2018-12-25T11:11:58.232Z,9088.00
2018-12-25T11:12:59.322Z,8036.00
2018-12-25T11:13:58.822Z,6488.00
2018-12-25T11:14:58.341Z,5784.00
2018-12-25T11:15:58.389Z,5772.00
2018-12-25T11:16:58.428Z,7132.00
2018-12-25T11:17:58.494Z,7752.00
2018-12-25T11:18:59.343Z,8064.00
2018-12-25T11:19:58.554Z,8776.00
2018-12-25T11:21:03.832Z,9524.00
2018-12-25T11:21:58.635Z,8904.00
2018-12-25T11:22:59.360Z,8084.00
2018-12-25T11:24:00.330Z,7756.00
2018-12-25T11:24:58.768Z,6920.00
2018-12-25T11:25:58.814Z,6272.00
2018-12-25T11:26:58.850Z,6288.00
2018-12-25T11:27:58.934Z,6356.00
2018-12-25T11:28:58.946Z,6064.00
2018-12-25T11:30:00.823Z,6612.00
2018-12-25T11:30:59.866Z,6632.00
2018-12-25T11:31:59.065Z,6844.00
2018-12-25T11:33:00.823Z,7284.00
2018-12-25T11:33:59.831Z,7300.00
2018-12-25T11:34:59.204Z,7384.00
2018-12-25T11:35:59.824Z,7680.00
2018-12-25T11:36:59.317Z,7568.00
2018-12-25T11:37:59.335Z,7584.00
2018-12-25T11:38:59.377Z,7492.00
2018-12-25T11:39:59.396Z,7308.00
2018-12-25T11:40:59.438Z,7128.00
2018-12-25T11:41:59.493Z,7640.00
2018-12-25T11:42:59.520Z,7392.00
2018-12-25T11:43:59.696Z,7092.00
2018-12-25T11:44:59.609Z,6984.00
2018-12-25T11:45:59.644Z,7116.00
2018-12-25T11:46:59.686Z,7248.00
2018-12-25T11:47:59.735Z,6892.00
2018-12-25T11:48:59.804Z,6888.00
2018-12-25T11:49:59.844Z,6596.00
2018-12-25T11:51:01.324Z,6632.00
2018-12-25T11:51:59.903Z,6904.00
2018-12-25T11:52:59.937Z,7132.00
2018-12-25T11:54:00.633Z,7760.00
2018-12-25T11:55:00.094Z,8060.00
2018-12-25T11:56:00.064Z,8048.00
2018-12-25T11:57:00.112Z,7476.00
2018-12-25T11:58:00.156Z,7076.00
2018-12-25T11:59:00.198Z,7036.00
2018-12-25T12:00:00.261Z,6836.00
2018-12-25T12:01:00.293Z,6308.00
2018-12-25T12:02:00.313Z,5716.00
2018-12-25T12:03:00.359Z,5588.00
2018-12-25T12:04:00.401Z,5620.00
2018-12-25T12:05:01.324Z,5540.00
2018-12-25T12:06:00.527Z,5284.00
2018-12-25T12:07:00.535Z,5276.00
2018-12-25T12:08:01.322Z,5388.00
2018-12-25T12:09:00.631Z,5580.00
2018-12-25T12:10:00.695Z,5924.00
2018-12-25T12:11:00.688Z,5324.00
2018-12-25T12:12:00.735Z,4916.00
2018-12-25T12:13:01.362Z,5128.00
2018-12-25T12:14:00.826Z,5656.00
2018-12-25T12:15:00.887Z,5324.00
2018-12-25T12:16:00.902Z,5400.00
2018-12-25T12:17:01.822Z,5684.00
2018-12-25T12:18:00.981Z,6312.00
2018-12-25T12:19:01.645Z,6644.00
2018-12-25T12:20:01.093Z,6120.00
2018-12-25T12:21:01.110Z,5620.00
2018-12-25T12:22:01.174Z,5312.00
2018-12-25T12:23:01.328Z,5300.00
2018-12-25T12:24:01.230Z,5400.00
2018-12-25T12:25:01.272Z,5560.00
2018-12-25T12:26:01.342Z,5804.00
2018-12-25T12:27:01.368Z,6000.00
2018-12-25T12:28:01.400Z,6144.00
2018-12-25T12:29:01.438Z,5836.00
2018-12-25T12:30:01.495Z,6108.00
2018-12-25T12:31:01.552Z,6648.00
2018-12-25T12:32:01.587Z,7016.00
2018-12-25T12:33:01.615Z,7112.00
2018-12-25T12:34:01.651Z,7360.00
2018-12-25T12:35:01.688Z,7688.00
2018-12-25T12:36:01.746Z,7552.00
2018-12-25T12:37:01.792Z,8132.00
2018-12-25T12:38:01.826Z,8316.00
2018-12-25T12:39:01.909Z,8344.00
2018-12-25T12:40:01.896Z,8348.00
2018-12-25T12:41:01.953Z,8292.00
2018-12-25T12:42:02.010Z,7880.00
2018-12-25T12:43:02.033Z,7832.00
2018-12-25T12:44:02.063Z,7632.00